Time;durP1;ratioP1;P1;durP2;ratioP2;P2;SDS_P1;SDS_P2;PMS_P1;PMS_P2;Temp;Humidity;BMP_temperature;BMP_pressure;BME280_temperature;BME280_humidity;BME280_pressure;Samples;Min_cycle;Max_cycle;Signal;HPM_P1;HPM_P2
2023/12/18 00:00:27;;;;;;;0.40;0.40;;;;;;;16.55;43.04;95026.25;5069030;28;20445;-92
2023/12/18 00:02:53;;;;;;;0.55;0.52;;;;;;;16.58;43.04;95021.84;5069233;28;20044;-92
2023/12/18 00:05:19;;;;;;;0.45;0.45;;;;;;;16.59;43.12;95018.66;5049147;28;20047;-91
2023/12/18 00:07:44;;;;;;;0.80;0.50;;;;;;;16.55;42.72;95018.06;5054308;28;20037;-92
2023/12/18 00:10:09;;;;;;;0.90;0.60;;;;;;;16.61;42.57;95018.97;5065709;28;20036;-92
2023/12/18 00:12:36;;;;;;;0.60;0.40;;;;;;;16.58;42.93;95006.22;5056498;28;20533;-92
2023/12/18 00:15:01;;;;;;;0.63;0.43;;;;;;;16.60;43.05;95005.78;5047430;28;20048;-92
2023/12/18 00:17:27;;;;;;;0.40;0.40;;;;;;;16.57;43.17;95009.41;5066381;28;20045;-92
2023/12/18 00:19:53;;;;;;;0.60;0.47;;;;;;;16.61;43.09;94999.09;5037286;28;20032;-93
2023/12/18 00:22:18;;;;;;;0.50;0.50;;;;;;;16.60;42.75;95003.81;5031810;28;20048;-92
2023/12/18 00:24:44;;;;;;;0.32;0.32;;;;;;;16.62;42.76;95003.34;5015557;28;20048;-92
2023/12/18 00:27:09;;;;;;;0.47;0.30;;;;;;;16.61;42.61;95008.03;5031574;28;20036;-92
2023/12/18 00:29:34;;;;;;;0.50;0.50;;;;;;;16.58;43.03;94998.03;5038744;28;20067;-91
2023/12/18 00:32:00;;;;;;;0.50;0.38;;;;;;;16.56;43.10;95005.19;5056305;28;20033;-92
2023/12/18 00:34:25;;;;;;;1.10;0.57;;;;;;;16.61;42.85;95004.56;5055845;28;20045;-92
2023/12/18 00:36:51;;;;;;;0.38;0.38;;;;;;;16.58;43.32;95008.22;5065889;28;20037;-92
2023/12/18 00:39:16;;;;;;;0.40;0.40;;;;;;;16.58;42.72;95008.22;5050868;28;20074;-91
2023/12/18 00:41:42;;;;;;;0.30;0.30;;;;;;;16.63;42.77;95016.56;5040836;28;20049;-92
2023/12/18 00:44:08;;;;;;;0.77;0.40;;;;;;;16.62;42.64;95012.28;5043513;28;20052;-92
2023/12/18 00:46:33;;;;;;;0.40;0.35;;;;;;;16.61;42.54;95005.31;5078127;28;20048;-91
2023/12/18 00:48:59;;;;;;;0.80;0.50;;;;;;;16.56;42.70;95010.63;5037456;28;20045;-92
2023/12/18 00:51:24;;;;;;;0.55;0.47;;;;;;;16.61;43.02;95010.03;5051089;28;20055;-93
2023/12/18 00:53:50;;;;;;;0.45;0.35;;;;;;;16.65;42.71;95002.47;5020525;28;20037;-92
2023/12/18 00:56:15;;;;;;;0.30;0.30;;;;;;;16.63;42.88;95005.66;5027609;28;20041;-92
2023/12/18 00:58:41;;;;;;;0.40;0.40;;;;;;;16.61;42.90;95005.31;5053359;28;20071;-92
2023/12/18 01:01:06;;;;;;;0.57;0.30;;;;;;;16.58;43.15;95006.22;5050922;28;20032;-92
2023/12/18 01:03:31;;;;;;;0.43;0.43;;;;;;;16.63;42.90;95011.09;5042626;28;20561;-92
2023/12/18 01:05:57;;;;;;;0.40;0.40;;;;;;;16.61;42.97;95018.97;5041211;28;20445;-92
2023/12/18 01:08:22;;;;;;;0.60;0.40;;;;;;;16.56;43.17;95011.41;5037549;28;20561;-91
2023/12/18 01:10:48;;;;;;;0.65;0.40;;;;;;;16.61;42.81;95013.50;5017376;28;20284;-91
2023/12/18 01:13:13;;;;;;;0.20;0.20;;;;;;;16.60;43.11;95012.00;5031045;28;20128;-92
2023/12/18 01:15:39;;;;;;;0.50;0.40;;;;;;;16.65;42.63;95005.19;5030259;28;20044;-92
2023/12/18 01:18:04;;;;;;;0.20;0.20;;;;;;;16.54;43.21;95002.16;5030262;28;20048;-92
2023/12/18 01:20:30;;;;;;;0.35;0.30;;;;;;;16.48;43.03;95015.66;5042440;28;20037;-92
2023/12/18 01:22:55;;;;;;;0.30;0.30;;;;;;;16.60;42.65;95013.97;5018378;28;20037;-92
2023/12/18 01:25:21;;;;;;;0.30;0.30;;;;;;;16.54;43.25;95011.09;5063301;28;20048;-92
2023/12/18 01:27:46;;;;;;;0.60;0.43;;;;;;;16.60;42.68;95012.00;5037412;28;20032;-92
2023/12/18 01:30:12;;;;;;;0.52;0.40;;;;;;;16.61;42.65;95012.75;5040874;28;20117;-91
2023/12/18 01:32:38;;;;;;;0.52;0.43;;;;;;;16.62;42.82;95012.28;5054966;28;20028;-91
2023/12/18 01:35:04;;;;;;;0.38;0.30;;;;;;;16.61;42.62;95005.31;5050659;28;20511;-92
2023/12/18 01:37:29;;;;;;;0.30;0.30;;;;;;;16.60;42.64;95006.53;5055512;28;20110;-91
2023/12/18 01:39:55;;;;;;;0.88;0.40;;;;;;;16.62;42.70;94993.19;5054264;28;20041;-92
2023/12/18 01:42:20;;;;;;;0.40;0.40;;;;;;;16.61;42.94;94994.41;5051320;28;20036;-92
2023/12/18 01:44:48;;;;;;;0.50;0.30;;;;;;;16.63;42.97;95000.19;5056317;28;20043;-92
2023/12/18 01:47:13;;;;;;;0.30;0.30;;;;;;;16.61;42.58;95002.59;5070297;28;20498;-92
2023/12/18 01:49:39;;;;;;;0.20;0.20;;;;;;;16.62;42.84;95004.09;5043789;28;20051;-92
2023/12/18 01:52:05;;;;;;;0.30;0.30;;;;;;;16.54;43.24;94996.69;5029137;28;20399;-92
2023/12/18 01:54:30;;;;;;;0.65;0.25;;;;;;;16.56;42.97;94997.75;5045603;28;20028;-92
2023/12/18 01:56:56;;;;;;;0.30;0.30;;;;;;;16.59;42.69;95004.25;5030953;28;20044;-92
2023/12/18 01:59:23;;;;;;;0.38;0.25;;;;;;;16.57;43.03;95007.44;5055516;28;20040;-92
2023/12/18 02:01:49;;;;;;;0.38;0.38;;;;;;;16.59;42.66;94999.56;5071432;28;20028;-92
2023/12/18 02:04:14;;;;;;;0.50;0.40;;;;;;;16.64;42.77;95004.44;5051771;28;20058;-92
2023/12/18 02:06:40;;;;;;;0.40;0.40;;;;;;;16.58;42.77;95006.22;5071929;28;20048;-92
2023/12/18 02:09:05;;;;;;;0.88;0.30;;;;;;;16.61;42.94;95010.78;5054012;28;20071;-92
2023/12/18 02:11:31;;;;;;;0.38;0.38;;;;;;;16.53;43.33;95000.63;5054051;28;20051;-91
2023/12/18 02:13:56;;;;;;;1.23;0.45;;;;;;;16.62;43.06;95006.84;5052594;28;20628;-92
2023/12/18 02:16:22;;;;;;;0.68;0.40;;;;;;;16.61;42.65;95010.03;5070696;28;20045;-92
2023/12/18 02:18:48;;;;;;;0.30;0.30;;;;;;;16.58;42.65;95003.50;5049683;28;20041;-91
2023/12/18 02:21:20;;;;;;;0.30;0.30;;;;;;;16.58;43.11;95005.47;5050912;28;20051;-92
2023/12/18 02:23:46;;;;;;;0.22;0.22;;;;;;;16.57;42.83;95007.44;5070827;28;20376;-91
2023/12/18 02:26:11;;;;;;;0.80;0.40;;;;;;;16.61;42.50;95005.31;5053843;28;20127;-92
2023/12/18 02:28:37;;;;;;;0.20;0.20;;;;;;;16.62;42.56;95000.63;5071132;28;20044;-92
2023/12/18 02:31:03;;;;;;;0.40;0.35;;;;;;;16.59;42.90;95004.25;5053507;28;20040;-92
2023/12/18 02:33:28;;;;;;;0.30;0.30;;;;;;;16.57;43.38;95001.22;5054534;28;20059;-91
2023/12/18 02:35:56;;;;;;;0.68;0.30;;;;;;;16.58;42.92;95005.47;5053182;28;20495;-92
2023/12/18 02:38:21;;;;;;;0.20;0.20;;;;;;;16.61;42.76;94990.91;5070500;28;20047;-92
2023/12/18 02:40:47;;;;;;;0.90;0.30;;;;;;;16.61;42.50;94994.41;5076903;28;20044;-91
2023/12/18 02:43:12;;;;;;;0.55;0.30;;;;;;;16.61;42.68;94996.38;5070479;28;20029;-92
2023/12/18 02:45:38;;;;;;;0.28;0.28;;;;;;;16.58;42.66;94995.31;5077230;28;20036;-92
2023/12/18 02:48:04;;;;;;;0.30;0.30;;;;;;;16.59;42.62;94985.16;5072934;28;20564;-92
2023/12/18 02:50:29;;;;;;;0.45;0.38;;;;;;;16.60;42.74;94989.41;5033535;28;20045;-92
2023/12/18 02:52:55;;;;;;;0.50;0.20;;;;;;;16.57;42.90;94984.84;5030005;28;20079;-91
2023/12/18 02:55:20;;;;;;;0.28;0.28;;;;;;;16.51;43.13;94992.16;5039835;28;20045;-92
2023/12/18 02:57:46;;;;;;;0.30;0.30;;;;;;;16.58;42.59;94984.41;5051473;28;20037;-92
2023/12/18 03:00:11;;;;;;;0.40;0.40;;;;;;;16.55;42.75;94987.28;5053823;28;20089;-92
2023/12/18 03:02:37;;;;;;;0.30;0.30;;;;;;;16.57;42.78;94982.88;5073815;28;20036;-92
2023/12/18 03:05:04;;;;;;;0.20;0.20;;;;;;;16.55;42.91;94979.09;5066906;28;20053;-92
2023/12/18 03:07:29;;;;;;;0.30;0.20;;;;;;;16.53;43.22;94984.25;5053511;28;20128;-91
2023/12/18 03:09:55;;;;;;;0.30;0.30;;;;;;;16.60;42.96;94973.78;5071692;28;20044;-92
2023/12/18 03:12:20;;;;;;;0.30;0.30;;;;;;;16.62;42.68;94982.25;5053714;28;20043;-91
2023/12/18 03:14:46;;;;;;;0.43;0.40;;;;;;;16.60;42.63;94986.66;5035292;28;20461;-92
2023/12/18 03:17:11;;;;;;;0.22;0.20;;;;;;;16.61;42.82;94967.09;5046312;28;20032;-92
2023/12/18 03:19:38;;;;;;;0.52;0.40;;;;;;;16.59;42.96;94968.78;5050148;28;20086;-92
2023/12/18 03:22:04;;;;;;;0.60;0.50;;;;;;;16.63;42.70;94972.09;5041311;28;20048;-92
2023/12/18 03:24:30;;;;;;;0.40;0.40;;;;;;;16.62;42.47;94976.03;5040779;28;20075;-92
2023/12/18 03:26:55;;;;;;;0.47;0.40;;;;;;;16.61;42.81;94972.56;5033328;28;20040;-92
2023/12/18 03:29:21;;;;;;;0.40;0.40;;;;;;;16.56;42.73;94973.16;5032971;28;20043;-92
2023/12/18 03:31:46;;;;;;;0.85;0.30;;;;;;;16.60;42.75;94976.50;5029513;28;20071;-92
2023/12/18 03:34:11;;;;;;;0.73;0.38;;;;;;;16.62;42.78;94978.78;5039793;28;20033;-92
2023/12/18 03:36:37;;;;;;;0.43;0.40;;;;;;;16.60;42.57;94965.59;5039997;28;20044;-91
2023/12/18 03:39:02;;;;;;;0.30;0.30;;;;;;;16.58;42.70;94968.00;5033352;28;20103;-91
2023/12/18 03:41:28;;;;;;;0.28;0.20;;;;;;;16.58;42.64;94975.44;5039582;28;20048;-91
2023/12/18 03:43:53;;;;;;;0.20;0.20;;;;;;;16.62;42.78;94973.31;5051990;28;20111;-92
2023/12/18 03:46:19;;;;;;;0.40;0.40;;;;;;;16.61;42.47;94964.38;5032277;28;20155;-92
2023/12/18 03:48:45;;;;;;;0.40;0.20;;;;;;;16.52;43.19;94960.91;5034441;28;20033;-92
2023/12/18 03:51:11;;;;;;;0.20;0.20;;;;;;;16.54;42.72;94951.03;5030302;28;20470;-92
2023/12/18 03:53:37;;;;;;;0.20;0.20;;;;;;;16.55;42.77;94951.78;5035541;28;20272;-91
2023/12/18 03:56:04;;;;;;;0.20;0.20;;;;;;;16.60;42.43;94951.94;5046657;28;20050;-91
2023/12/18 03:58:29;;;;;;;0.45;0.32;;;;;;;16.60;42.96;94948.44;5089210;28;20506;-92
2023/12/18 04:00:54;;;;;;;0.68;0.50;;;;;;;16.57;42.98;94950.13;5072252;28;20054;-92
2023/12/18 04:03:20;;;;;;;0.30;0.30;;;;;;;16.52;42.68;94961.66;5055213;28;20028;-91
2023/12/18 04:05:45;;;;;;;0.60;0.40;;;;;;;16.55;42.31;94958.00;5059999;28;20502;-92
2023/12/18 04:08:11;;;;;;;0.40;0.30;;;;;;;16.58;42.97;94959.06;5059329;28;20028;-91
2023/12/18 04:10:36;;;;;;;0.50;0.40;;;;;;;16.56;42.73;94953.31;5085941;28;20067;-91
2023/12/18 04:13:02;;;;;;;0.35;0.35;;;;;;;16.59;42.65;94944.97;5071874;28;20086;-91
2023/12/18 04:15:28;;;;;;;0.30;0.30;;;;;;;16.61;42.65;94947.97;5047710;28;20545;-91
2023/12/18 04:17:55;;;;;;;0.20;0.20;;;;;;;16.60;42.63;94951.94;5014797;28;20029;-92
2023/12/18 04:20:20;;;;;;;0.40;0.20;;;;;;;16.62;42.63;94943.28;5062033;28;20599;-91
2023/12/18 04:22:46;;;;;;;0.40;0.30;;;;;;;16.58;42.73;94948.16;5042109;28;20036;-91
2023/12/18 04:25:11;;;;;;;4.30;0.55;;;;;;;16.56;42.68;94940.41;5032170;28;20040;-92
2023/12/18 04:27:37;;;;;;;0.30;0.30;;;;;;;16.61;42.35;94945.25;5052401;28;20039;-91
2023/12/18 04:30:02;;;;;;;0.22;0.20;;;;;;;16.55;43.14;94944.34;5057529;28;20043;-91
2023/12/18 04:32:28;;;;;;;10.02;4.22;;;;;;;16.64;43.53;94940.88;5034859;28;20055;-91
2023/12/18 04:34:53;;;;;;;2.10;1.42;;;;;;;16.69;43.39;94932.03;5047578;28;20675;-92
2023/12/18 04:37:19;;;;;;;29.52;13.93;;;;;;;16.74;42.85;94934.13;5048214;28;20096;-91
2023/12/18 04:39:44;;;;;;;61.15;23.77;;;;;;;16.76;43.21;94942.63;5034174;28;20485;-89
2023/12/18 04:42:10;;;;;;;79.15;37.72;;;;;;;16.80;42.98;94945.94;5008257;28;20582;-89
2023/12/18 04:44:35;;;;;;;58.47;22.30;;;;;;;16.84;43.03;94940.31;4993456;28;20053;-90
2023/12/18 04:47:01;;;;;;;13.98;4.45;;;;;;;16.71;42.75;94946.75;4988920;28;20041;-92
2023/12/18 04:49:26;;;;;;;8.50;5.03;;;;;;;16.64;43.23;94938.91;4996348;28;20163;-90
2023/12/18 04:51:52;;;;;;;14.70;7.13;;;;;;;16.66;43.01;94939.19;4981049;28;20059;-92
2023/12/18 04:54:17;;;;;;;11.38;7.40;;;;;;;16.60;43.09;94932.81;5024001;28;20045;-91
2023/12/18 04:56:44;;;;;;;12.98;8.48;;;;;;;16.55;40.82;94938.91;5007043;28;20404;-93
2023/12/18 04:59:13;;;;;;;11.95;6.82;;;;;;;16.41;38.60;94931.38;4984073;28;20048;-91
2023/12/18 05:01:39;;;;;;;13.20;6.18;;;;;;;16.32;37.14;94939.59;4977141;28;20081;-92
2023/12/18 05:04:05;;;;;;;17.25;5.07;;;;;;;16.11;36.58;94939.34;5004942;28;20045;-93
2023/12/18 05:06:30;;;;;;;11.27;3.72;;;;;;;16.05;36.04;94935.72;5000108;28;20116;-92
2023/12/18 05:08:56;;;;;;;17.25;5.97;;;;;;;15.99;35.83;94932.13;5000484;28;20044;-94
2023/12/18 05:11:24;;;;;;;55.85;17.55;;;;;;;15.82;36.18;94932.88;5042092;28;20112;-92
2023/12/18 05:13:50;;;;;;;55.05;15.00;;;;;;;15.82;35.29;94930.16;5024784;28;20079;-89
2023/12/18 05:16:16;;;;;;;47.80;16.58;;;;;;;15.79;35.25;94936.53;5017094;28;20080;-90
2023/12/18 05:18:41;;;;;;;51.95;16.17;;;;;;;15.64;34.86;94934.41;5045984;28;20051;-91
2023/12/18 05:21:07;;;;;;;64.28;19.63;;;;;;;15.76;34.93;94941.69;5015182;28;20353;-92
2023/12/18 05:23:33;;;;;;;61.47;22.73;;;;;;;15.64;34.28;94939.13;5075818;28;20043;-92
2023/12/18 05:25:58;;;;;;;111.53;32.85;;;;;;;15.59;34.09;94932.31;5059365;28;20112;-92
2023/12/18 05:28:25;;;;;;;69.90;24.20;;;;;;;15.52;33.99;94937.28;5037060;28;20044;-91
2023/12/18 05:30:51;;;;;;;70.53;25.27;;;;;;;15.51;34.24;94933.81;5050191;28;20032;-91
2023/12/18 05:33:17;;;;;;;61.17;21.00;;;;;;;15.38;34.75;94933.94;5046089;28;20040;-91
2023/12/18 05:35:43;;;;;;;52.20;19.38;;;;;;;15.44;34.90;94940.31;5045136;28;20041;-91
2023/12/18 05:38:08;;;;;;;55.67;19.40;;;;;;;15.60;35.49;94933.81;5052413;28;20250;-88
2023/12/18 05:40:34;;;;;;;77.25;22.83;;;;;;;15.75;34.85;94929.28;5013417;23;20111;-91
2023/12/18 05:43:00;;;;;;;79.85;24.48;;;;;;;15.71;35.83;94931.41;5003190;28;20048;-89
2023/12/18 05:45:25;;;;;;;88.63;23.38;;;;;;;15.79;37.08;94933.81;5021471;28;20045;-92
2023/12/18 05:47:53;;;;;;;67.40;22.52;;;;;;;15.78;36.58;94933.06;5027731;28;20041;-88
2023/12/18 05:50:18;;;;;;;40.75;17.25;;;;;;;15.66;36.93;94928.53;5014790;28;20037;-90
2023/12/18 05:52:43;;;;;;;41.17;16.10;;;;;;;15.75;37.06;94928.53;4980194;28;20037;-89
2023/12/18 05:55:09;;;;;;;82.60;22.40;;;;;;;15.83;37.43;94934.41;4998505;28;20542;-89
2023/12/18 05:57:46;;;;;;;109.13;25.27;;;;;;;15.90;37.55;94923.94;5000325;28;20090;-91
2023/12/18 06:00:13;;;;;;;106.13;28.15;;;;;;;15.97;37.97;94931.06;4999899;28;20129;-93
2023/12/18 06:02:39;;;;;;;103.20;29.65;;;;;;;16.03;38.28;94921.03;4998766;28;20042;-92
2023/12/18 06:05:05;;;;;;;110.55;27.17;;;;;;;15.98;38.37;94933.31;5004995;28;20045;-92
2023/12/18 06:07:30;;;;;;;115.22;28.42;;;;;;;16.06;38.10;94922.84;5010083;28;20578;-91
2023/12/18 06:09:56;;;;;;;75.47;23.00;;;;;;;16.13;38.03;94924.50;4977701;28;20129;-92
2023/12/18 06:12:22;;;;;;;92.30;22.85;;;;;;;15.95;37.53;94928.78;4994167;28;25261;-91
2023/12/18 06:14:47;;;;;;;64.10;22.63;;;;;;;16.01;37.90;94931.66;5006080;28;20041;-92
2023/12/18 06:17:13;;;;;;;86.57;30.25;;;;;;;15.98;37.62;94916.97;4997427;28;20443;-91
2023/12/18 06:19:38;;;;;;;85.43;28.92;;;;;;;16.02;37.66;94928.44;4998118;28;20034;-92
2023/12/18 06:22:04;;;;;;;100.05;30.10;;;;;;;16.16;38.28;94927.06;4994022;28;20040;-93
2023/12/18 06:24:29;;;;;;;91.05;30.42;;;;;;;16.24;38.26;94925.50;4983663;28;20112;-93
2023/12/18 06:26:56;;;;;;;87.35;30.90;;;;;;;16.23;38.06;94923.25;4977342;28;20405;-92
2023/12/18 06:29:22;;;;;;;96.35;34.35;;;;;;;16.17;38.00;94925.84;4980506;28;20033;-91
2023/12/18 06:32:13;;;;;;;97.63;33.00;;;;;;;16.14;38.10;94921.31;5005378;28;20044;-93
2023/12/18 06:34:39;;;;;;;77.57;29.67;;;;;;;16.11;38.60;94922.97;5006347;28;20658;-91
2023/12/18 06:37:04;;;;;;;71.72;28.85;;;;;;;16.19;38.39;94934.34;4986239;28;20084;-92
2023/12/18 06:39:29;;;;;;;79.28;30.50;;;;;;;16.23;38.36;94932.22;4978358;28;20568;-91
2023/12/18 06:41:55;;;;;;;77.43;31.90;;;;;;;16.26;38.04;94927.78;5012452;28;20046;-92
2023/12/18 06:44:24;;;;;;;89.38;32.05;;;;;;;16.40;38.53;94929.88;5005827;28;20042;-91
2023/12/18 06:46:51;;;;;;;89.13;32.90;;;;;;;16.35;38.06;94935.94;5039941;28;20045;-92
2023/12/18 06:49:17;;;;;;;88.93;35.30;;;;;;;16.33;38.32;94941.09;5013201;28;20034;-92
2023/12/18 06:51:44;;;;;;;72.53;32.90;;;;;;;16.35;38.50;94942.16;5010612;28;20041;-93
2023/12/18 06:54:14;;;;;;;82.40;34.88;;;;;;;16.34;38.39;94946.09;5000284;28;20394;-91
2023/12/18 06:56:39;;;;;;;83.47;32.58;;;;;;;16.29;38.42;94943.25;5026711;28;20047;-90
2023/12/18 06:59:06;;;;;;;88.85;32.85;;;;;;;16.34;38.42;94948.84;5010080;28;20046;-90
2023/12/18 07:01:31;;;;;;;64.38;32.38;;;;;;;16.46;38.51;94945.13;4993682;28;20041;-90
2023/12/18 07:03:57;;;;;;;89.43;35.55;;;;;;;16.57;38.80;94941.94;5023746;28;20100;-93
2023/12/18 07:06:25;;;;;;;98.28;50.22;;;;;;;16.56;38.54;94951.34;5027649;28;20046;-92
2023/12/18 07:09:07;;;;;;;91.07;37.78;;;;;;;16.55;38.68;94932.69;5013699;28;20029;-92
2023/12/18 07:11:34;;;;;;;78.05;35.40;;;;;;;16.55;39.04;94938.91;5028222;28;20045;-91
2023/12/18 07:14:00;;;;;;;87.22;34.92;;;;;;;16.53;38.74;94935.88;5006192;28;20128;-91
2023/12/18 07:16:28;;;;;;;90.82;33.85;;;;;;;16.56;38.93;94951.34;4987015;28;20064;-93
2023/12/18 07:18:55;;;;;;;66.20;32.78;;;;;;;16.45;38.62;94942.91;5017781;28;20060;-92
2023/12/18 07:21:20;;;;;;;80.97;35.42;;;;;;;16.41;38.87;94953.22;5000593;28;20248;-92
2023/12/18 07:23:47;;;;;;;67.30;34.40;;;;;;;16.54;38.76;94937.38;5019112;28;20723;-91
2023/12/18 07:26:13;;;;;;;78.00;37.22;;;;;;;16.56;38.70;94942.38;5009347;28;20042;-92
2023/12/18 07:28:41;;;;;;;90.65;38.78;;;;;;;16.59;38.51;94946.94;4984552;28;20059;-93
2023/12/18 07:31:07;;;;;;;88.65;36.63;;;;;;;16.58;39.02;94945.41;4995917;28;20056;-94
2023/12/18 07:33:33;;;;;;;104.15;40.53;;;;;;;16.61;38.76;94958.16;5005008;28;20089;-91
2023/12/18 07:36:01;;;;;;;118.35;41.03;;;;;;;16.59;38.65;94955.88;5003173;28;20046;-88
2023/12/18 07:38:27;;;;;;;105.18;40.45;;;;;;;16.54;39.13;94958.47;5021085;28;20038;-92
2023/12/18 07:40:52;;;;;;;105.05;38.28;;;;;;;16.61;39.26;94952.69;5010166;28;20038;-93
2023/12/18 07:43:29;;;;;;;85.80;37.00;;;;;;;16.57;38.79;94958.31;5013603;28;20663;-91
2023/12/18 07:45:54;;;;;;;89.93;37.90;;;;;;;16.44;39.22;94949.56;5010754;28;20644;-90
2023/12/18 07:48:29;;;;;;;89.88;36.15;;;;;;;16.52;38.92;94952.72;5018638;28;20034;-89
2023/12/18 07:50:56;;;;;;;105.80;38.15;;;;;;;16.61;38.93;94953.44;5065513;22;20052;-90
2023/12/18 07:53:22;;;;;;;91.88;36.85;;;;;;;16.61;38.98;94958.91;5030467;28;20021;-94
2023/12/18 07:55:47;;;;;;;101.80;39.97;;;;;;;16.50;38.96;94955.91;5049430;28;20741;-93
2023/12/18 07:58:13;;;;;;;105.95;44.22;;;;;;;16.57;38.92;94963.00;5036109;28;20037;-91
2023/12/18 08:00:52;;;;;;;192.60;51.60;;;;;;;16.53;39.61;94962.41;5048625;28;20037;-94
2023/12/18 08:03:18;;;;;;;165.80;47.55;;;;;;;16.57;39.38;94960.28;5021294;28;20388;-92
2023/12/18 08:05:46;;;;;;;99.95;34.47;;;;;;;16.62;39.29;94962.38;5054297;28;20432;-90
2023/12/18 08:08:11;;;;;;;109.95;38.35;;;;;;;16.59;39.27;94958.59;5019279;28;20074;-92
2023/12/18 08:10:37;;;;;;;101.97;35.50;;;;;;;16.64;39.48;94959.97;5025577;28;20033;-92
2023/12/18 08:13:07;;;;;;;107.55;35.17;;;;;;;16.58;39.38;94951.63;5016441;28;20170;-90
2023/12/18 08:15:32;;;;;;;86.90;34.10;;;;;;;16.64;39.32;94959.97;5032472;28;20036;-89
2023/12/18 08:17:58;;;;;;;97.95;33.63;;;;;;;16.62;39.37;94963.16;5030191;28;20102;-90
2023/12/18 08:20:24;;;;;;;90.18;33.80;;;;;;;16.64;39.49;94963.47;5029198;28;20048;-91
2023/12/18 08:22:49;;;;;;;84.13;32.47;;;;;;;16.60;39.65;94957.38;5071236;28;20036;-92
2023/12/18 08:25:25;;;;;;;79.22;29.98;;;;;;;16.65;39.43;94948.59;5034038;28;20041;-92
2023/12/18 08:27:50;;;;;;;73.00;29.10;;;;;;;16.78;39.04;94956.56;5078972;28;20490;-92
2023/12/18 08:30:17;;;;;;;65.32;28.85;;;;;;;16.73;39.32;94960.69;5023581;28;20048;-93
2023/12/18 08:32:42;;;;;;;58.33;27.10;;;;;;;16.69;39.81;94959.34;5031105;28;20120;-93
2023/12/18 08:35:12;;;;;;;63.03;25.55;;;;;;;16.76;39.55;94959.00;5032020;28;20041;-92
2023/12/18 08:37:39;;;;;;;61.60;25.90;;;;;;;16.79;39.56;94955.34;5021895;28;20084;-95
2023/12/18 08:40:05;;;;;;;58.78;26.63;;;;;;;16.83;39.49;94952.47;4989714;28;20050;-92
2023/12/18 08:42:30;;;;;;;70.57;26.67;;;;;;;16.84;39.59;94956.72;5000939;28;20704;-91
2023/12/18 08:44:56;;;;;;;58.55;26.08;;;;;;;16.85;39.58;94956.25;4999466;28;20136;-94
2023/12/18 08:47:24;;;;;;;64.78;27.23;;;;;;;16.80;39.48;94951.41;4995858;28;20070;-91
2023/12/18 08:49:51;;;;;;;55.85;25.23;;;;;;;16.86;39.40;94954.28;5002116;28;20038;-93
2023/12/18 08:52:16;;;;;;;72.57;29.63;;;;;;;16.82;39.59;94943.50;4998714;28;20180;-92
2023/12/18 08:54:43;;;;;;;72.07;32.33;;;;;;;16.84;39.81;94945.78;4990991;28;20043;-93
2023/12/18 08:57:09;;;;;;;80.90;34.83;;;;;;;16.90;39.54;94954.84;4996315;28;20042;-92
2023/12/18 08:59:34;;;;;;;135.38;59.00;;;;;;;16.85;38.89;94950.03;4987094;28;20136;-91
2023/12/18 09:02:00;;;;;;;76.55;35.05;;;;;;;16.68;37.34;94944.94;4984025;28;20093;-91
2023/12/18 09:04:38;;;;;;;93.93;35.78;;;;;;;16.57;36.62;94957.56;4985455;28;20053;-91
2023/12/18 09:07:03;;;;;;;81.45;33.10;;;;;;;16.44;36.25;94944.13;4966577;28;20193;-91
2023/12/18 09:09:29;;;;;;;76.40;32.47;;;;;;;16.46;36.40;94963.50;4960361;28;20046;-90
2023/12/18 09:11:54;;;;;;;80.97;33.30;;;;;;;16.53;36.88;94956.94;4945484;28;20042;-93
2023/12/18 09:14:21;;;;;;;84.57;32.42;;;;;;;16.52;36.83;94956.19;4928867;28;20142;-89
2023/12/18 09:16:47;;;;;;;80.47;41.90;;;;;;;16.51;37.44;94959.38;4921337;28;20207;-90
2023/12/18 09:19:13;;;;;;;102.88;47.83;;;;;;;16.59;37.91;94950.41;4949098;28;20055;-90
2023/12/18 09:21:38;;;;;;;109.15;51.25;;;;;;;16.63;38.50;94953.78;4955491;28;20046;-91
2023/12/18 09:24:04;;;;;;;115.75;51.08;;;;;;;16.60;38.88;94959.38;4982446;28;20114;-93
2023/12/18 09:26:31;;;;;;;107.22;56.95;;;;;;;16.57;38.54;94960.28;4979102;28;20117;-93
2023/12/18 09:28:56;;;;;;;96.75;48.28;;;;;;;16.60;38.28;94942.97;5001927;28;20053;-90
2023/12/18 09:31:22;;;;;;;112.93;53.75;;;;;;;16.70;38.22;94952.66;4967964;28;20044;-92
2023/12/18 09:33:47;;;;;;;162.25;70.70;;;;;;;16.77;38.83;94949.59;4968086;28;20051;-93
2023/12/18 09:36:13;;;;;;;198.60;85.05;;;;;;;16.76;38.78;94940.66;4990211;28;20129;-90
2023/12/18 09:38:39;;;;;;;175.18;79.70;;;;;;;16.89;38.72;94942.41;5017467;28;20049;-90
2023/12/18 09:41:04;;;;;;;190.68;84.13;;;;;;;16.76;38.76;94940.66;5064279;28;20120;-89
2023/12/18 09:43:30;;;;;;;178.88;86.68;;;;;;;16.84;38.72;94940.31;5061031;28;20132;-88
2023/12/18 09:45:56;;;;;;;231.55;93.90;;;;;;;16.89;38.79;94945.88;5030529;28;20052;-89
2023/12/18 09:48:23;;;;;;;229.60;96.72;;;;;;;16.86;39.12;94937.88;5028413;28;20068;-87
2023/12/18 09:50:48;;;;;;;128.23;53.40;;;;;;;16.72;37.82;94931.09;5046552;28;20045;-87
2023/12/18 09:53:14;;;;;;;109.63;46.85;;;;;;;16.60;37.06;94927.34;5063329;28;20403;-88
2023/12/18 09:55:40;;;;;;;83.82;36.65;;;;;;;16.56;36.45;94934.19;5032875;28;20052;-88
2023/12/18 09:58:05;;;;;;;78.80;35.05;;;;;;;16.53;36.53;94922.22;5047608;28;20434;-88
2023/12/18 10:00:31;;;;;;;103.07;44.65;;;;;;;16.59;37.01;94931.31;5018411;28;20434;-90
2023/12/18 10:02:57;;;;;;;149.15;53.45;;;;;;;16.61;37.04;94930.84;5015862;28;20311;-90
2023/12/18 10:05:24;;;;;;;157.43;62.40;;;;;;;16.63;36.81;94926.47;5031584;28;20056;-91
2023/12/18 10:07:51;;;;;;;175.18;86.03;;;;;;;16.71;37.82;94927.63;5052092;28;20131;-91
2023/12/18 10:10:17;;;;;;;176.35;85.97;;;;;;;16.69;38.06;94918.38;5052834;28;20060;-90
2023/12/18 10:12:42;;;;;;;193.82;91.00;;;;;;;16.66;38.49;94920.09;5039900;28;20064;-90
2023/12/18 10:15:16;;;;;;;152.68;83.55;;;;;;;16.75;38.53;94919.25;5039824;28;20040;-91
2023/12/18 10:17:42;;;;;;;198.93;91.93;;;;;;;16.71;38.66;94913.22;5067099;28;20498;-92
2023/12/18 10:20:08;;;;;;;186.27;90.78;;;;;;;16.78;38.44;94899.22;5026139;28;20058;-92
2023/12/18 10:22:34;;;;;;;167.18;83.53;;;;;;;16.82;39.29;94901.78;5047540;28;20036;-92
2023/12/18 10:24:59;;;;;;;174.98;80.55;;;;;;;16.75;38.33;94902.88;5074392;28;20048;-91
2023/12/18 10:27:25;;;;;;;150.98;73.88;;;;;;;16.79;38.84;94912.41;5034872;28;20044;-91
2023/12/18 10:29:51;;;;;;;189.07;84.10;;;;;;;16.83;38.72;94908.75;5018294;28;20039;-93
2023/12/18 10:32:17;;;;;;;185.52;83.50;;;;;;;16.81;38.58;94895.56;5020993;28;20037;-92
2023/12/18 10:34:46;;;;;;;175.07;85.25;;;;;;;16.85;39.28;94896.16;5038270;28;20052;-89
2023/12/18 10:37:11;;;;;;;193.90;80.70;;;;;;;16.94;38.96;94900.78;5038526;28;20556;-89
2023/12/18 10:39:40;;;;;;;182.30;82.93;;;;;;;16.87;38.76;94899.19;5037557;28;20120;-90
2023/12/18 10:42:11;;;;;;;212.75;86.53;;;;;;;16.83;39.02;94895.13;5055367;28;20049;-91
2023/12/18 10:44:36;;;;;;;215.23;80.95;;;;;;;16.86;38.83;94894.94;5043287;28;20029;-86
2023/12/18 10:47:08;;;;;;;212.20;85.25;;;;;;;16.91;38.70;94888.06;5045688;28;20411;-91
2023/12/18 10:49:33;;;;;;;214.05;84.43;;;;;;;16.88;38.93;94883.56;5017428;28;20119;-89
2023/12/18 10:51:59;;;;;;;143.30;54.05;;;;;;;16.77;37.25;94890.28;5014959;28;20056;-90
2023/12/18 10:54:24;;;;;;;119.53;41.50;;;;;;;16.71;36.88;94877.72;5018853;28;20206;-91
2023/12/18 10:56:50;;;;;;;82.85;38.13;;;;;;;16.65;36.30;94866.69;5019188;28;20098;-93
2023/12/18 10:59:18;;;;;;;136.02;32.00;;;;;;;16.62;36.33;94862.13;5023718;28;20041;-91
2023/12/18 11:01:44;;;;;;;70.68;26.63;;;;;;;16.62;35.79;94864.88;5017353;28;20041;-92
2023/12/18 11:04:12;;;;;;;63.30;21.25;;;;;;;16.52;35.97;94851.72;5013530;28;20120;-91
2023/12/18 11:06:38;;;;;;;40.05;16.48;;;;;;;16.47;35.99;94842.19;5053941;28;20696;-88
2023/12/18 11:09:04;;;;;;;37.83;15.48;;;;;;;16.36;35.67;94829.06;5013029;28;20084;-91
2023/12/18 11:11:29;;;;;;;45.08;14.52;;;;;;;16.21;36.21;94830.97;4993276;28;20447;-92
2023/12/18 11:14:10;;;;;;;29.98;11.82;;;;;;;16.25;36.59;94826.06;5030991;28;20049;-91
2023/12/18 11:16:46;;;;;;;30.83;12.10;;;;;;;16.25;36.25;94826.06;5033495;28;20029;-90